Positano — IJZJ — position and weather

sailwx.info

Track history (hours):
 
Tides and Currents Weather Stations Pressure Air Temp Water Temp Dewpoint Dewpoint Depression Visibility Wind Speed Wind Dir Waves Ship Positions

Positano

Last reported at 2015-Aug-29 16:33 UTC. Time now 2015-Aug-31 06:48 UTC.
Position N 40°37' E 014°20'.

Length 12 m.

Type: Ship. MMSI: 247208300.

Date/timePositionNaut miles runAvg speedWind from/ knotsBaromVisibWave heightAir tempDewpointWater temp
2015-Aug-29 16:33N 40°37' E 014°20'7 2.2
2015-Aug-29 13:20N 40°37' E 014°29'8 1.4
2015-Aug-29 07:29N 40°35' E 014°19'2 0.0
2015-Aug-27 16:33N 40°37' E 014°20'7 3.3
2015-Aug-27 14:24N 40°37' E 014°29'8 1.1
2015-Aug-27 07:16N 40°35' E 014°19'2 0.1
2015-Aug-26 16:33N 40°37' E 014°20'5 2.6
2015-Aug-26 14:33N 40°34' E 014°14'3 0.4
2015-Aug-26 07:23N 40°35' E 014°18'2 0.2
2015-Aug-25 16:30N 40°37' E 014°20'7 5.1
2015-Aug-25 15:03N 40°33' E 014°12'2 4.6
2015-Aug-25 14:33N 40°33' E 014°15'0 0.4
2015-Aug-25 13:33N 40°33' E 014°15'0 0.0
2015-Aug-25 12:33N 40°33' E 014°15'0 0.0
2015-Aug-25 11:31N 40°33' E 014°15'0 0.0
2015-Aug-25 10:32N 40°33' E 014°15'0 0.0
2015-Aug-25 09:33N 40°33' E 014°15'0 0.0
2015-Aug-25 08:33N 40°33' E 014°15'2 1.6
2015-Aug-25 07:33N 40°34' E 014°17'3 0.1
2015-Aug-23 16:33N 40°37' E 014°20'7 5.1
2015-Aug-23 15:07N 40°33' E 014°12'2 3.9
2015-Aug-23 14:32N 40°33' E 014°15'0 0.4
2015-Aug-23 13:33N 40°33' E 014°15'0 0.0
2015-Aug-23 12:33N 40°33' E 014°15'0 0.0
2015-Aug-23 11:33N 40°33' E 014°15'0 0.0
2015-Aug-23 10:34N 40°33' E 014°15'0 0.0
2015-Aug-23 09:33N 40°33' E 014°15'0 0.0
2015-Aug-23 08:33N 40°33' E 014°15'3 2.6
2015-Aug-23 07:31N 40°35' E 014°18'3 0.2
2015-Aug-22 16:33N 40°37' E 014°20'8 1.0
2015-Aug-22 08:30N 40°36' E 014°30'9 7.8
2015-Aug-22 07:24N 40°35' E 014°19'2 0.1
2015-Aug-20 19:14N 40°37' E 014°20'1 1.8
2015-Aug-20 18:29N 40°38' E 014°21'2 0.3
2015-Aug-20 11:33N 40°36' E 014°20'  
Track history (hours):
 
Tides and Currents Weather Stations Pressure Air Temp Water Temp Dewpoint Dewpoint Depression Visibility Wind Speed Wind Dir Waves Ship Positions

Positano

Last reported at 2015-Aug-29 16:33 UTC. Time now 2015-Aug-31 06:48 UTC.
Position N 40°37' E 014°20'.

Length 12 m.

Type: Ship. MMSI: 247208300.

Date/timePositionNaut miles runAvg speedWind from/ knotsBaromVisibWave heightAir tempDewpointWater temp
2015-Aug-29 16:33N 40°37' E 014°20'7 2.2
2015-Aug-29 13:20N 40°37' E 014°29'8 1.4
2015-Aug-29 07:29N 40°35' E 014°19'2 0.0
2015-Aug-27 16:33N 40°37' E 014°20'7 3.3
2015-Aug-27 14:24N 40°37' E 014°29'8 1.1
2015-Aug-27 07:16N 40°35' E 014°19'2 0.1
2015-Aug-26 16:33N 40°37' E 014°20'5 2.6
2015-Aug-26 14:33N 40°34' E 014°14'3 0.4
2015-Aug-26 07:23N 40°35' E 014°18'2 0.2
2015-Aug-25 16:30N 40°37' E 014°20'7 5.1
2015-Aug-25 15:03N 40°33' E 014°12'2 4.6
2015-Aug-25 14:33N 40°33' E 014°15'0 0.4
2015-Aug-25 13:33N 40°33' E 014°15'0 0.0
2015-Aug-25 12:33N 40°33' E 014°15'0 0.0
2015-Aug-25 11:31N 40°33' E 014°15'0 0.0
2015-Aug-25 10:32N 40°33' E 014°15'0 0.0
2015-Aug-25 09:33N 40°33' E 014°15'0 0.0
2015-Aug-25 08:33N 40°33' E 014°15'2 1.6
2015-Aug-25 07:33N 40°34' E 014°17'3 0.1
2015-Aug-23 16:33N 40°37' E 014°20'7 5.1
2015-Aug-23 15:07N 40°33' E 014°12'2 3.9
2015-Aug-23 14:32N 40°33' E 014°15'0 0.4
2015-Aug-23 13:33N 40°33' E 014°15'0 0.0
2015-Aug-23 12:33N 40°33' E 014°15'0 0.0
2015-Aug-23 11:33N 40°33' E 014°15'0 0.0
2015-Aug-23 10:34N 40°33' E 014°15'0 0.0
2015-Aug-23 09:33N 40°33' E 014°15'0 0.0
2015-Aug-23 08:33N 40°33' E 014°15'3 2.6
2015-Aug-23 07:31N 40°35' E 014°18'3 0.2
2015-Aug-22 16:33N 40°37' E 014°20'8 1.0
2015-Aug-22 08:30N 40°36' E 014°30'9 7.8
2015-Aug-22 07:24N 40°35' E 014°19'2 0.1
2015-Aug-20 19:14N 40°37' E 014°20'1 1.8
2015-Aug-20 18:29N 40°38' E 014°21'2 0.3
2015-Aug-20 11:33N 40°36' E 014°20'  

Dump ship's entire track history